Time;durP1;ratioP1;P1;durP2;ratioP2;P2;SDS_P1;SDS_P2;PMS_P1;PMS_P2;Temp;Humidity;BMP_temperature;BMP_pressure;BME280_temperature;BME280_humidity;BME280_pressure;Samples;Min_cycle;Max_cycle;Signal;HPM_P1;HPM_P2
2022/07/19 00:02:15;;;;;;;3.75;1.72;;;;;;;24.88;44.49;102199.20;1733191;81;21519;-50
2022/07/19 00:04:41;;;;;;;5.33;1.85;;;;;;;24.92;44.55;102199.87;1733278;81;21027;-50
2022/07/19 00:07:08;;;;;;;5.90;1.98;;;;;;;24.92;44.70;102195.87;1734612;81;21015;-50
2022/07/19 00:09:35;;;;;;;1.80;1.57;;;;;;;24.92;44.79;102193.22;1736398;81;21050;-51
2022/07/19 00:12:05;;;;;;;4.12;2.00;;;;;;;24.92;44.79;102193.22;1700562;84;21018;-53
2022/07/19 00:14:31;;;;;;;3.27;1.47;;;;;;;24.89;44.46;102193.41;1697294;84;21048;-49
2022/07/19 00:16:59;;;;;;;4.70;1.70;;;;;;;24.86;43.65;102193.58;1698672;84;21037;-52
2022/07/19 00:19:26;;;;;;;1.87;1.60;;;;;;;24.80;42.53;102192.14;1701721;83;21065;-50
2022/07/19 00:21:54;;;;;;;1.98;1.30;;;;;;;24.80;42.53;102192.14;1700366;84;21085;-50
2022/07/19 00:24:20;;;;;;;3.27;1.67;;;;;;;24.79;42.30;102194.41;1704084;83;21483;-50
2022/07/19 00:26:47;;;;;;;3.90;1.55;;;;;;;24.78;42.07;102190.50;1731826;81;21068;-49
2022/07/19 00:29:14;;;;;;;2.83;1.72;;;;;;;24.78;42.07;102190.50;1731971;81;21008;-49
2022/07/19 00:31:41;;;;;;;2.05;1.57;;;;;;;24.78;41.86;102197.16;1731562;81;21039;-51
2022/07/19 00:34:08;;;;;;;1.40;1.30;;;;;;;24.77;41.74;102191.47;1731836;81;21575;-52
2022/07/19 00:36:34;;;;;;;2.08;1.40;;;;;;;24.74;41.58;102193.83;1734714;81;21007;-50
2022/07/19 00:39:01;;;;;;;3.42;1.82;;;;;;;24.75;41.38;102186.71;1735200;81;21042;-50
2022/07/19 00:41:28;;;;;;;3.65;1.50;;;;;;;24.74;41.28;102190.30;1696730;84;21043;-48
2022/07/19 00:43:57;;;;;;;2.83;1.70;;;;;;;24.70;41.17;102180.28;1724391;81;21062;-50
2022/07/19 00:46:24;;;;;;;1.40;1.30;;;;;;;24.68;41.22;102181.31;1731313;81;21038;-49
2022/07/19 00:48:50;;;;;;;9.60;1.80;;;;;;;24.67;41.36;102181.78;1734254;81;21464;-52
2022/07/19 00:51:18;;;;;;;5.37;1.30;;;;;;;24.65;41.43;102181.47;1734655;81;21043;-50
2022/07/19 00:53:44;;;;;;;2.65;1.60;;;;;;;24.64;41.64;102178.44;1699506;84;21557;-49
2022/07/19 00:56:13;;;;;;;2.87;1.52;;;;;;;24.61;41.87;102169.29;1698209;83;21081;-49
2022/07/19 00:58:40;;;;;;;5.42;1.90;;;;;;;24.59;41.97;102171.18;1704122;83;21038;-52
2022/07/19 01:01:08;;;;;;;3.98;1.55;;;;;;;24.57;42.00;102179.73;1701407;84;21013;-50
2022/07/19 01:03:36;;;;;;;2.08;1.70;;;;;;;24.56;41.91;102174.04;1734753;81;21090;-52
2022/07/19 01:06:03;;;;;;;2.42;1.67;;;;;;;24.54;42.33;102175.93;1733185;81;21527;-48
2022/07/19 01:08:30;;;;;;;5.85;1.50;;;;;;;24.52;43.16;102173.83;1731729;81;21003;-51
2022/07/19 01:10:57;;;;;;;4.62;1.60;;;;;;;24.52;44.26;102177.82;1731606;81;20984;-50
2022/07/19 01:13:24;;;;;;;7.00;1.70;;;;;;;24.49;44.29;102179.31;1731650;81;21003;-49
2022/07/19 01:15:51;;;;;;;2.60;1.72;;;;;;;24.49;44.66;102175.32;1732172;81;21080;-51
2022/07/19 01:18:19;;;;;;;5.90;1.87;;;;;;;24.44;44.30;102174.25;1732527;81;21015;-52
2022/07/19 01:20:45;;;;;;;2.15;1.57;;;;;;;24.42;43.80;102172.64;1700726;84;21019;-51
2022/07/19 01:23:13;;;;;;;1.85;1.60;;;;;;;24.42;43.80;102172.64;1734407;81;22207;-51
2022/07/19 01:25:42;;;;;;;2.80;1.50;;;;;;;24.46;43.00;102178.17;1698725;83;21049;-49
2022/07/19 01:28:08;;;;;;;4.25;1.47;;;;;;;24.45;42.62;102178.64;1732698;81;21519;-49
2022/07/19 01:30:35;;;;;;;1.55;1.45;;;;;;;24.44;42.74;102178.23;1733831;82;21049;-50
2022/07/19 01:33:03;;;;;;;2.47;1.30;;;;;;;24.45;43.16;102185.75;1734995;81;20988;-49
2022/07/19 01:35:30;;;;;;;1.47;1.37;;;;;;;24.45;43.11;102184.42;1734915;81;21015;-50
2022/07/19 01:37:58;;;;;;;6.20;2.00;;;;;;;24.44;43.14;102185.39;1734076;81;21573;-48
2022/07/19 01:40:25;;;;;;;2.25;1.22;;;;;;;24.43;43.33;102184.52;1731328;81;21484;-50
2022/07/19 01:42:51;;;;;;;2.92;1.60;;;;;;;24.44;43.74;102185.39;1731681;81;21015;-49
2022/07/19 01:45:18;;;;;;;3.27;1.57;;;;;;;24.45;43.98;102181.77;1728282;81;20999;-49
2022/07/19 01:47:45;;;;;;;1.75;1.15;;;;;;;24.42;44.92;102184.62;1734390;81;21030;-52
2022/07/19 01:50:14;;;;;;;1.57;1.40;;;;;;;24.42;44.92;102184.62;1733618;81;21047;-50
2022/07/19 01:52:42;;;;;;;3.37;1.50;;;;;;;24.44;46.08;102192.04;1731501;81;21049;-52
2022/07/19 01:55:09;;;;;;;3.27;2.35;;;;;;;24.43;45.82;102190.31;1733784;81;21492;-51
2022/07/19 01:57:36;;;;;;;2.12;1.62;;;;;;;24.41;45.80;102188.20;1729646;82;21567;-49
2022/07/19 02:00:07;;;;;;;2.12;1.47;;;;;;;24.40;45.81;102190.50;1735606;81;21015;-51
2022/07/19 02:02:36;;;;;;;3.47;1.37;;;;;;;24.40;45.94;102183.84;1730915;82;20991;-52
2022/07/19 02:05:03;;;;;;;2.27;1.70;;;;;;;24.41;45.90;102189.53;1733922;81;21019;-55
2022/07/19 02:07:30;;;;;;;3.10;1.70;;;;;;;24.42;45.69;102192.60;1731421;81;21007;-50
2022/07/19 02:09:58;;;;;;;2.05;1.47;;;;;;;24.42;45.70;102192.60;1697348;84;21007;-52
2022/07/19 02:12:25;;;;;;;2.92;1.70;;;;;;;24.42;45.89;102192.10;1731742;81;21073;-50
2022/07/19 02:14:52;;;;;;;2.20;1.65;;;;;;;24.43;45.77;102190.31;1730448;81;20983;-50
2022/07/19 02:17:21;;;;;;;1.47;1.37;;;;;;;24.42;45.72;102189.94;1731892;81;21538;-52
2022/07/19 02:19:48;;;;;;;3.08;1.25;;;;;;;24.43;45.99;102192.50;1733135;81;21030;-51
2022/07/19 02:22:15;;;;;;;2.80;2.00;;;;;;;24.43;45.72;102184.98;1733997;82;21046;-50
2022/07/19 02:24:42;;;;;;;5.92;1.55;;;;;;;24.43;45.72;102184.98;1721584;81;21054;-49
2022/07/19 02:27:10;;;;;;;5.92;2.10;;;;;;;24.43;46.00;102186.31;1698605;84;21546;-49
2022/07/19 02:29:38;;;;;;;3.95;1.72;;;;;;;24.43;46.21;102184.98;1699050;84;21042;-53
2022/07/19 02:32:06;;;;;;;2.90;1.90;;;;;;;24.42;46.65;102185.45;1700011;84;21030;-52
2022/07/19 02:34:32;;;;;;;2.80;1.92;;;;;;;24.42;46.92;102188.61;1734429;81;21079;-48
2022/07/19 02:36:59;;;;;;;2.40;1.67;;;;;;;24.42;46.33;102185.95;1700933;84;21574;-50
2022/07/19 02:39:26;;;;;;;2.10;1.90;;;;;;;24.42;44.91;102187.28;1698698;84;21038;-49
2022/07/19 02:41:54;;;;;;;2.15;1.55;;;;;;;24.41;44.07;102186.88;1697821;84;21007;-49
2022/07/19 02:44:21;;;;;;;2.72;1.50;;;;;;;24.38;43.17;102185.73;1698401;83;21030;-50
2022/07/19 02:46:49;;;;;;;2.65;1.67;;;;;;;24.38;43.17;102185.73;1697300;84;21030;-49
2022/07/19 02:49:16;;;;;;;5.17;1.37;;;;;;;24.39;42.99;102188.77;1697715;84;21027;-51
2022/07/19 02:51:43;;;;;;;1.55;1.30;;;;;;;24.39;42.97;102190.09;1699901;84;20995;-49
2022/07/19 02:54:09;;;;;;;3.27;1.40;;;;;;;24.38;42.90;102191.89;1700731;84;21124;-51
2022/07/19 02:56:37;;;;;;;4.30;1.47;;;;;;;24.38;42.89;102192.39;1700239;84;21098;-50
2022/07/19 02:59:04;;;;;;;4.17;1.47;;;;;;;24.37;42.94;102191.52;1697835;84;21531;-49
2022/07/19 03:01:31;;;;;;;2.33;1.42;;;;;;;24.36;42.64;102191.62;1730403;81;21071;-51
2022/07/19 03:03:59;;;;;;;2.98;1.32;;;;;;;24.33;42.40;102193.97;1700791;84;21022;-53
2022/07/19 03:06:26;;;;;;;2.58;1.40;;;;;;;24.32;42.27;102191.41;1734618;81;21030;-50
2022/07/19 03:08:53;;;;;;;1.37;1.00;;;;;;;24.30;42.04;102194.12;1700158;84;21027;-51
2022/07/19 03:11:21;;;;;;;2.35;1.40;;;;;;;24.30;42.11;102194.62;1697666;84;21026;-51
2022/07/19 03:13:48;;;;;;;2.55;1.20;;;;;;;24.28;42.05;102199.17;1698141;84;21058;-54
2022/07/19 03:16:15;;;;;;;2.77;1.40;;;;;;;24.28;42.18;102201.84;1699583;84;21101;-53
2022/07/19 03:18:42;;;;;;;2.12;1.30;;;;;;;24.27;42.44;102202.77;1702398;84;21046;-51
2022/07/19 03:21:09;;;;;;;2.65;1.27;;;;;;;24.24;42.51;102207.31;1706442;84;21034;-53
2022/07/19 03:23:38;;;;;;;3.37;1.70;;;;;;;24.24;42.25;102205.98;1704003;84;21026;-50
2022/07/19 03:26:05;;;;;;;1.47;1.20;;;;;;;24.23;42.05;102210.06;1697563;83;20995;-52
2022/07/19 03:28:33;;;;;;;1.70;1.42;;;;;;;24.21;42.07;102214.12;1698382;83;21491;-50
2022/07/19 03:31:00;;;;;;;2.67;1.30;;;;;;;24.21;42.04;102213.28;1730196;81;21019;-51
2022/07/19 03:33:28;;;;;;;3.80;1.37;;;;;;;24.20;42.09;102212.42;1700586;84;21057;-49
2022/07/19 03:35:55;;;;;;;1.90;1.27;;;;;;;24.19;42.11;102216.50;1699176;84;21074;-50
2022/07/19 03:38:22;;;;;;;1.70;1.30;;;;;;;24.33;41.61;102217.05;1698527;84;21069;-49
2022/07/19 03:40:49;;;;;;;1.50;1.10;;;;;;;24.33;41.61;102217.05;1699911;84;20986;-49
2022/07/19 03:43:16;;;;;;;4.33;1.20;;;;;;;24.40;41.95;102223.27;1736727;80;21062;-49
2022/07/19 03:45:44;;;;;;;3.02;1.42;;;;;;;24.72;44.53;102219.65;1736544;81;21015;-49
2022/07/19 03:48:12;;;;;;;2.10;1.22;;;;;;;24.72;44.53;102219.65;1735015;81;21810;-49
2022/07/19 03:50:39;;;;;;;1.32;1.15;;;;;;;24.98;45.20;102219.48;1733584;81;21059;-52
2022/07/19 03:53:07;;;;;;;3.70;1.50;;;;;;;25.36;44.81;102219.41;1726817;81;21062;-49
2022/07/19 03:55:34;;;;;;;3.05;1.20;;;;;;;25.84;43.87;102223.08;1736371;81;21038;-50
2022/07/19 03:58:01;;;;;;;1.40;1.15;;;;;;;26.40;42.72;102218.65;1698430;84;21419;-53
2022/07/19 04:00:28;;;;;;;2.60;1.32;;;;;;;27.02;41.60;102220.73;1698866;83;21085;-52
2022/07/19 04:02:54;;;;;;;1.80;1.22;;;;;;;27.59;40.39;102223.09;1700311;83;21541;-50
2022/07/19 04:05:21;;;;;;;1.85;1.40;;;;;;;27.98;39.48;102229.20;1700886;84;21015;-54
2022/07/19 04:07:49;;;;;;;1.40;1.20;;;;;;;28.16;38.99;102227.88;1700780;84;21022;-53
2022/07/19 04:10:15;;;;;;;3.33;1.50;;;;;;;28.23;38.52;102231.45;1698528;84;21015;-51
2022/07/19 04:12:42;;;;;;;3.85;1.70;;;;;;;28.19;38.33;102232.16;1697688;83;20990;-49
2022/07/19 04:15:10;;;;;;;3.37;1.92;;;;;;;28.04;38.55;102234.59;1692828;83;21467;-50
2022/07/19 04:17:38;;;;;;;2.45;1.40;;;;;;;27.82;38.96;102235.21;1700743;84;21038;-51
2022/07/19 04:20:06;;;;;;;1.90;1.22;;;;;;;27.62;38.72;102237.09;1698230;84;21026;-50
2022/07/19 04:22:35;;;;;;;4.45;1.60;;;;;;;27.38;39.07;102235.66;1699165;83;21573;-51
2022/07/19 04:25:02;;;;;;;3.55;1.30;;;;;;;27.17;39.17;102242.90;1699700;84;21032;-50
2022/07/19 04:27:30;;;;;;;1.27;1.15;;;;;;;26.97;39.21;102244.72;1700551;84;21002;-50
2022/07/19 04:29:57;;;;;;;3.33;1.30;;;;;;;26.79;39.37;102240.11;1735347;81;20992;-50
2022/07/19 04:32:24;;;;;;;5.05;1.45;;;;;;;26.65;39.51;102245.47;1698939;84;20999;-52
2022/07/19 04:34:51;;;;;;;3.02;1.30;;;;;;;26.50;39.85;102245.16;1732367;81;21043;-51
2022/07/19 04:37:18;;;;;;;4.53;1.72;;;;;;;26.38;39.90;102242.78;1731496;81;21023;-54
2022/07/19 04:39:45;;;;;;;1.82;1.52;;;;;;;26.26;40.31;102247.57;1731221;81;21011;-50
2022/07/19 04:42:12;;;;;;;1.65;1.50;;;;;;;26.14;40.20;102249.69;1731370;81;21028;-51
2022/07/19 04:44:40;;;;;;;6.12;1.95;;;;;;;26.04;40.48;102244.98;1730463;81;21082;-51
2022/07/19 04:47:06;;;;;;;4.40;1.80;;;;;;;25.93;40.69;102242.12;1733924;81;21043;-52
2022/07/19 04:49:34;;;;;;;2.40;2.10;;;;;;;25.81;40.75;102240.63;1735177;82;21043;-49
2022/07/19 04:52:01;;;;;;;2.50;1.90;;;;;;;25.74;40.82;102237.08;1689035;84;21023;-50
2022/07/19 04:54:28;;;;;;;2.33;1.70;;;;;;;25.67;40.83;102236.63;1699208;84;21078;-49
2022/07/19 04:56:57;;;;;;;4.22;1.92;;;;;;;25.62;40.72;102240.03;1735159;81;20999;-51
2022/07/19 04:59:24;;;;;;;3.22;1.80;;;;;;;25.59;40.75;102238.03;1735224;81;21038;-52
2022/07/19 05:01:50;;;;;;;2.05;1.80;;;;;;;25.56;40.84;102241.74;1738476;81;21082;-50
2022/07/19 05:04:18;;;;;;;4.10;1.85;;;;;;;25.55;40.68;102237.37;1732371;81;21039;-50
2022/07/19 05:06:44;;;;;;;4.22;2.22;;;;;;;25.53;40.53;102241.91;1733625;82;21503;-53
2022/07/19 05:09:11;;;;;;;4.22;1.60;;;;;;;25.50;40.37;102240.78;1700997;84;21054;-54
2022/07/19 05:11:38;;;;;;;2.40;1.90;;;;;;;25.51;40.22;102237.15;1700801;84;21014;-52
2022/07/19 05:14:05;;;;;;;4.35;2.17;;;;;;;25.52;40.42;102239.34;1731870;81;21022;-51
2022/07/19 05:16:32;;;;;;;2.33;1.70;;;;;;;25.57;40.43;102241.27;1731545;81;21023;-50
2022/07/19 05:19:00;;;;;;;3.22;1.62;;;;;;;25.72;40.18;102242.52;1732160;81;21042;-51
2022/07/19 05:21:26;;;;;;;2.98;1.98;;;;;;;25.94;39.80;102242.05;1730795;81;21011;-50
2022/07/19 05:23:53;;;;;;;1.82;1.57;;;;;;;26.20;39.31;102243.09;1732058;81;21177;-51
2022/07/19 05:26:20;;;;;;;3.02;1.70;;;;;;;26.50;39.17;102241.98;1735267;81;21555;-49
2022/07/19 05:28:47;;;;;;;2.47;2.00;;;;;;;26.82;38.83;102245.73;1734621;81;21066;-49
2022/07/19 05:31:15;;;;;;;5.37;1.60;;;;;;;27.05;37.96;102239.25;1733217;81;21039;-52
2022/07/19 05:33:43;;;;;;;4.60;1.90;;;;;;;27.23;37.91;102241.14;1732056;81;21527;-49
2022/07/19 05:36:10;;;;;;;1.90;1.75;;;;;;;27.37;37.76;102240.61;1700026;84;21042;-50
2022/07/19 05:38:38;;;;;;;2.67;2.02;;;;;;;27.46;37.45;102237.79;1700716;84;21042;-50
2022/07/19 05:41:07;;;;;;;41.83;3.45;;;;;;;27.55;37.62;102238.98;1734503;81;21547;-52
2022/07/19 05:43:35;;;;;;;55.98;4.03;;;;;;;27.61;37.53;102238.55;1700177;84;20974;-52
2022/07/19 05:46:03;;;;;;;12.73;2.08;;;;;;;27.61;37.30;102237.22;1694881;84;21023;-52
2022/07/19 05:48:31;;;;;;;31.33;3.52;;;;;;;27.59;37.28;102237.80;1698305;84;20983;-51
2022/07/19 05:50:58;;;;;;;23.35;3.22;;;;;;;27.57;37.19;102243.73;1692745;84;21065;-54
2022/07/19 05:53:26;;;;;;;16.97;2.55;;;;;;;27.55;37.22;102236.30;1698710;84;20999;-51
2022/07/19 05:55:54;;;;;;;2.15;1.72;;;;;;;27.54;37.22;102235.91;1701861;84;21475;-53
2022/07/19 05:58:24;;;;;;;13.90;2.10;;;;;;;27.55;37.12;102238.50;1700675;84;21010;-50
2022/07/19 06:03:36;;;;;;;29.30;4.30;;;;;;;27.61;37.29;102238.55;1700031;84;21017;-51
2022/07/19 06:06:04;;;;;;;79.17;6.33;;;;;;;27.63;37.57;102240.64;1685258;84;21525;-52
2022/07/19 06:08:32;;;;;;;13.18;2.55;;;;;;;27.67;37.45;102232.77;1733819;82;20995;-54
2022/07/19 06:10:59;;;;;;;9.13;1.90;;;;;;;27.78;37.44;102234.22;1734682;81;21027;-52
2022/07/19 06:13:26;;;;;;;50.15;4.87;;;;;;;27.96;37.24;102241.84;1734572;81;21012;-52
2022/07/19 06:15:54;;;;;;;8.80;2.17;;;;;;;28.18;36.73;102242.00;1692885;84;21030;-51
2022/07/19 06:18:21;;;;;;;2.75;1.70;;;;;;;28.40;36.60;102239.12;1697733;84;21026;-51
2022/07/19 06:20:48;;;;;;;2.27;1.42;;;;;;;28.60;36.21;102238.05;1698468;84;20983;-55
2022/07/19 06:23:15;;;;;;;4.83;2.10;;;;;;;28.77;36.12;102236.30;1728405;81;21531;-50
2022/07/19 06:25:41;;;;;;;2.90;1.80;;;;;;;28.91;35.93;102244.15;1734593;81;21025;-51
2022/07/19 06:28:08;;;;;;;2.85;1.90;;;;;;;29.03;35.99;102235.69;1732648;81;21046;-49
2022/07/19 06:30:35;;;;;;;3.50;1.60;;;;;;;29.12;35.72;102238.16;1733134;81;21000;-53
2022/07/19 06:33:03;;;;;;;1.70;1.60;;;;;;;29.20;35.44;102237.13;1733465;82;21015;-50
2022/07/19 06:35:30;;;;;;;2.50;1.70;;;;;;;29.26;35.28;102238.85;1701141;84;20995;-52
2022/07/19 06:37:57;;;;;;;2.85;2.20;;;;;;;29.29;35.59;102235.05;1734346;81;21051;-50
2022/07/19 06:40:24;;;;;;;3.67;1.60;;;;;;;29.29;35.02;102236.39;1732504;81;21060;-49
2022/07/19 06:42:51;;;;;;;4.22;1.90;;;;;;;29.29;34.09;102236.39;1731413;81;21508;-50
2022/07/19 06:45:17;;;;;;;2.50;1.60;;;;;;;29.30;34.55;102230.08;1725948;81;21062;-49
2022/07/19 06:47:46;;;;;;;2.45;1.50;;;;;;;29.29;34.15;102236.39;1700645;84;21042;-51
2022/07/19 06:50:13;;;;;;;2.52;1.52;;;;;;;29.27;34.22;102233.84;1699628;84;21085;-52
2022/07/19 06:52:40;;;;;;;3.27;1.40;;;;;;;29.27;34.16;102234.32;1697188;84;21042;-53
2022/07/19 06:55:08;;;;;;;3.22;1.50;;;;;;;29.28;33.96;102232.02;1693275;84;21042;-50
2022/07/19 06:57:35;;;;;;;3.75;1.62;;;;;;;29.29;34.44;102231.03;1704004;84;21046;-52
2022/07/19 07:00:04;;;;;;;2.47;1.60;;;;;;;29.29;34.41;102235.05;1698553;84;21486;-50
2022/07/19 07:02:31;;;;;;;2.85;1.67;;;;;;;29.30;34.77;102238.98;1697856;84;21499;-51
2022/07/19 07:04:58;;;;;;;3.08;1.65;;;;;;;29.33;34.86;102246.77;1697561;84;21534;-50
2022/07/19 07:07:25;;;;;;;2.17;1.40;;;;;;;29.35;35.05;102243.96;1698565;84;21010;-52
2022/07/19 07:09:52;;;;;;;2.58;1.20;;;;;;;29.38;33.54;102242.41;1698758;84;21490;-51
2022/07/19 07:12:20;;;;;;;2.65;1.35;;;;;;;29.43;32.11;102246.94;1700974;84;21038;-52
2022/07/19 07:14:47;;;;;;;1.25;0.98;;;;;;;29.51;31.68;102247.20;1697738;84;21030;-49
2022/07/19 07:17:14;;;;;;;4.60;1.40;;;;;;;29.61;31.15;102249.02;1700127;84;21538;-51
2022/07/19 07:19:41;;;;;;;1.67;1.32;;;;;;;29.73;31.69;102253.95;1688475;84;21030;-51
2022/07/19 07:22:08;;;;;;;4.12;1.52;;;;;;;29.89;32.83;102259.81;1697005;84;21026;-52
2022/07/19 07:24:36;;;;;;;1.92;1.60;;;;;;;30.03;33.66;102262.25;1700863;84;21093;-53
2022/07/19 07:27:04;;;;;;;2.62;1.25;;;;;;;30.18;33.73;102254.33;1735858;81;21035;-54
2022/07/19 07:29:32;;;;;;;2.60;1.62;;;;;;;30.30;33.29;102262.77;1735248;81;21003;-50
2022/07/19 07:31:59;;;;;;;2.75;1.72;;;;;;;30.40;33.31;102262.38;1733428;81;21429;-50
2022/07/19 07:34:26;;;;;;;2.70;1.30;;;;;;;30.47;33.54;102264.08;1733091;81;21011;-51
2022/07/19 07:36:53;;;;;;;19.17;2.33;;;;;;;30.50;33.65;102267.87;1733402;81;21515;-52
2022/07/19 07:39:19;;;;;;;10.58;2.00;;;;;;;30.51;33.43;102258.81;1733223;81;21026;-49
2022/07/19 07:41:46;;;;;;;3.02;1.47;;;;;;;30.52;32.71;102261.38;1735124;81;21054;-48
2022/07/19 07:44:14;;;;;;;3.25;1.42;;;;;;;30.58;31.77;102261.38;1700810;84;21507;-54
2022/07/19 07:46:41;;;;;;;2.12;1.40;;;;;;;30.64;31.07;102255.98;1732142;82;21023;-50
2022/07/19 07:49:08;;;;;;;2.83;1.50;;;;;;;30.67;31.12;102258.40;1723507;81;21030;-48
2022/07/19 07:51:35;;;;;;;3.75;1.30;;;;;;;30.69;31.30;102256.44;1736009;81;21479;-49
2022/07/19 07:54:02;;;;;;;3.45;1.55;;;;;;;30.69;31.42;102257.30;1735844;81;21062;-49
2022/07/19 07:56:29;;;;;;;5.08;1.50;;;;;;;30.68;31.59;102255.61;1733428;81;21109;-55
2022/07/19 07:58:56;;;;;;;2.42;1.47;;;;;;;30.67;31.86;102261.08;1735426;81;21039;-50
2022/07/19 08:01:22;;;;;;;2.72;1.50;;;;;;;30.60;32.15;102254.53;1736948;82;20999;-49
2022/07/19 08:03:49;;;;;;;2.42;1.50;;;;;;;30.57;32.56;102260.14;1736496;81;21050;-53
2022/07/19 08:06:17;;;;;;;2.75;1.47;;;;;;;30.54;32.99;102254.04;1735178;81;21058;-49
2022/07/19 08:08:45;;;;;;;6.67;2.25;;;;;;;30.52;33.25;102256.52;1733378;81;21007;-52
2022/07/19 08:11:12;;;;;;;2.00;1.57;;;;;;;30.50;33.68;102256.61;1733099;81;21531;-47
2022/07/19 08:13:39;;;;;;;2.85;1.30;;;;;;;30.51;33.85;102257.00;1733358;81;21000;-50
2022/07/19 08:16:07;;;;;;;2.10;1.27;;;;;;;30.52;34.24;102253.31;1732747;81;21034;-49
2022/07/19 08:18:34;;;;;;;7.97;1.60;;;;;;;30.50;34.52;102248.55;1731843;81;21046;-51
2022/07/19 08:21:01;;;;;;;4.90;1.55;;;;;;;30.47;35.03;102252.85;1741338;80;21034;-51
2022/07/19 08:23:27;;;;;;;5.50;1.65;;;;;;;30.46;35.26;102252.47;1735102;82;21034;-53
2022/07/19 08:25:54;;;;;;;1.40;1.30;;;;;;;30.46;35.58;102248.45;1723913;81;21015;-53
2022/07/19 08:28:21;;;;;;;1.62;1.52;;;;;;;30.46;35.87;102247.10;1738007;81;21004;-50
2022/07/19 08:30:48;;;;;;;2.05;1.37;;;;;;;30.45;36.21;102246.75;1731918;81;21027;-48
2022/07/19 08:33:14;;;;;;;2.22;1.25;;;;;;;30.43;36.43;102239.80;1731165;81;21010;-51
2022/07/19 08:35:41;;;;;;;3.22;1.52;;;;;;;30.42;36.37;102244.30;1731681;81;21007;-50
2022/07/19 08:38:08;;;;;;;1.35;1.25;;;;;;;30.46;36.34;102240.87;1730900;81;21007;-52
2022/07/19 08:40:35;;;;;;;4.72;1.47;;;;;;;30.46;36.34;102237.70;1732347;81;21032;-51
2022/07/19 08:43:04;;;;;;;4.62;1.22;;;;;;;30.49;36.16;102241.49;1734675;81;21019;-50
2022/07/19 08:45:30;;;;;;;2.65;1.42;;;;;;;30.54;35.89;102236.58;1700915;84;21022;-50
2022/07/19 08:47:57;;;;;;;0.95;0.95;;;;;;;30.54;36.11;102237.92;1732495;81;21074;-48
2022/07/19 08:50:26;;;;;;;2.37;1.25;;;;;;;30.56;36.25;102238.30;1732161;81;21027;-48
2022/07/19 08:52:53;;;;;;;2.42;1.30;;;;;;;30.55;36.21;102236.09;1732307;80;21500;-47
2022/07/19 08:55:19;;;;;;;5.00;1.32;;;;;;;30.57;36.17;102238.64;1725456;81;21023;-49
2022/07/19 08:58:00;;;;;;;2.37;1.22;;;;;;;30.61;35.94;102238.27;1732120;81;21019;-49
2022/07/19 09:00:32;;;;;;;2.05;1.10;;;;;;;30.62;35.40;102227.05;1728252;81;21023;-47
2022/07/19 09:03:01;;;;;;;;;;;;;;;30.62;35.68;102225.70;1708965;84;21074;-48
2022/07/19 09:05:28;;;;;;;1.65;1.47;;;;;;;30.66;35.14;102224.47;1734909;81;20125;-51
2022/07/19 09:08:14;;;;;;;2.42;1.25;;;;;;;30.70;35.15;102225.44;1700327;84;21053;-49
2022/07/19 09:11:14;;;;;;;2.52;1.20;;;;;;;30.77;35.57;102225.27;1737715;81;21492;-51
2022/07/19 09:13:16;;;;;;;1.92;1.00;;;;;;;30.86;35.57;102220.99;1730369;81;20998;-51
2022/07/19 09:15:53;;;;;;;0.85;0.82;;;;;;;30.94;35.22;102218.51;1738106;81;20984;-51
2022/07/19 09:18:25;;;;;;;2.72;1.20;;;;;;;31.00;35.21;102216.64;1732124;81;21015;-50
2022/07/19 09:20:55;;;;;;;1.72;0.93;;;;;;;31.06;35.09;102214.78;1649204;85;21087;-49
2022/07/19 09:23:22;;;;;;;2.10;1.17;;;;;;;31.11;35.12;102212.56;1606311;87;20996;-49
2022/07/19 09:25:58;;;;;;;3.72;1.22;;;;;;;31.11;35.01;102213.91;1617253;86;21074;-52
2022/07/19 09:28:26;;;;;;;1.98;1.10;;;;;;;31.11;34.90;102213.42;1611804;87;21123;-50
2022/07/19 09:30:55;;;;;;;2.25;1.50;;;;;;;31.11;34.64;102211.22;1608668;87;21567;-50
2022/07/19 09:33:30;;;;;;;1.17;1.02;;;;;;;31.10;34.30;102211.70;1595970;88;21569;-48
2022/07/19 09:36:00;;;;;;;2.47;1.20;;;;;;;31.07;34.73;102208.44;1595974;88;21587;-56
2022/07/19 09:38:30;;;;;;;1.37;1.10;;;;;;;31.03;35.12;102204.30;1597715;90;21017;-49
2022/07/19 09:41:17;;;;;;;1.30;1.15;;;;;;;31.02;34.90;102203.92;1548649;93;21132;-50
2022/07/19 09:43:55;;;;;;;2.60;1.10;;;;;;;31.02;34.90;102203.44;1545843;91;21027;-48
2022/07/19 09:46:42;;;;;;;1.50;1.07;;;;;;;31.02;34.73;102199.89;1524491;94;21133;-48
2022/07/19 09:49:16;;;;;;;1.25;1.10;;;;;;;31.02;34.74;102199.41;1523494;93;21074;-48
2022/07/19 09:51:49;;;;;;;1.20;1.10;;;;;;;31.02;35.43;102199.89;1547766;93;21070;-48
2022/07/19 09:54:22;;;;;;;1.55;1.20;;;;;;;31.01;35.27;102195.03;1533045;93;21018;-54
2022/07/19 09:56:50;;;;;;;3.65;1.30;;;;;;;31.01;35.02;102191.48;1503691;95;21660;-49
2022/07/19 09:59:18;;;;;;;1.45;1.22;;;;;;;31.02;34.69;102194.52;1525161;92;21050;-48
2022/07/19 10:01:48;;;;;;;1.47;1.37;;;;;;;31.01;34.87;102199.06;1527347;92;21124;-51
2022/07/19 10:04:18;;;;;;;1.20;1.10;;;;;;;31.01;34.95;102191.00;1526052;92;21599;-49
2022/07/19 10:06:46;;;;;;;2.50;1.17;;;;;;;31.02;34.60;102192.69;1526390;92;21073;-50
2022/07/19 10:09:14;;;;;;;0.90;0.90;;;;;;;31.00;34.88;102189.76;1525190;94;21050;-48
2022/07/19 10:11:41;;;;;;;3.52;1.02;;;;;;;31.00;34.78;102183.04;1523263;94;21022;-49
2022/07/19 10:14:09;;;;;;;1.72;0.90;;;;;;;31.01;34.95;102184.76;1525320;94;21586;-49
2022/07/19 10:17:19;;;;;;;1.20;1.10;;;;;;;31.02;34.80;102183.28;1526229;93;21615;-51
2022/07/19 10:19:47;;;;;;;2.72;0.98;;;;;;;31.03;35.35;102180.97;1564243;90;21066;-52
2022/07/19 10:22:24;;;;;;;1.62;1.00;;;;;;;31.04;34.74;102177.77;1563487;91;21091;-50
2022/07/19 10:25:00;;;;;;;1.57;1.05;;;;;;;31.03;33.67;102175.59;1555724;91;21132;-50
2022/07/19 10:27:32;;;;;;;2.25;0.90;;;;;;;31.00;34.05;102173.14;1520111;92;21098;-47
2022/07/19 10:30:13;;;;;;;1.60;0.90;;;;;;;30.99;33.98;102169.25;1553326;92;21469;-50
2022/07/19 10:32:44;;;;;;;2.08;1.00;;;;;;;30.98;34.24;102162.16;1542416;92;21117;-50
2022/07/19 10:35:18;;;;;;;1.55;1.00;;;;;;;30.98;33.01;102168.87;1484201;94;21081;-49
2022/07/19 10:37:48;;;;;;;1.40;0.98;;;;;;;30.98;32.49;102163.50;1543062;89;21023;-51
2022/07/19 10:40:43;;;;;;;1.52;1.12;;;;;;;30.97;32.10;102163.16;1554216;91;21098;-52
2022/07/19 10:46:03;;;;;;;1.30;1.20;;;;;;;30.94;33.18;102160.23;1539102;92;21032;-50
2022/07/19 10:48:48;;;;;;;2.00;1.32;;;;;;;30.91;33.06;102155.13;1538220;92;21097;-50
2022/07/19 10:51:33;;;;;;;1.60;0.80;;;;;;;30.91;33.72;102151.59;1535251;92;21114;-52
2022/07/19 10:54:07;;;;;;;1.15;0.90;;;;;;;30.93;34.28;102154.99;1540154;92;21569;-51
2022/07/19 10:56:41;;;;;;;2.35;1.05;;;;;;;31.01;34.50;102149.81;1536510;92;21128;-50
2022/07/19 10:59:11;;;;;;;0.95;0.85;;;;;;;31.11;34.93;102152.06;1487511;95;21092;-51
2022/07/19 11:04:36;;;;;;;3.05;1.25;;;;;;;31.30;34.38;102144.12;1428028;100;21683;-50
2022/07/19 11:07:19;;;;;;;2.92;1.22;;;;;;;31.40;34.37;102149.09;1419645;100;21194;-50
2022/07/19 11:09:53;;;;;;;2.33;1.00;;;;;;;31.48;34.12;102138.50;1442755;99;21666;-50
2022/07/19 11:12:24;;;;;;;1.27;1.10;;;;;;;31.53;34.19;102132.72;1442907;99;21644;-51
2022/07/19 11:14:52;;;;;;;1.22;1.10;;;;;;;31.55;34.42;102136.95;1418252;100;21152;-51
2022/07/19 11:17:20;;;;;;;2.08;1.10;;;;;;;31.56;34.46;102137.33;1415616;101;21704;-51
2022/07/19 11:20:12;;;;;;;2.20;1.00;;;;;;;31.56;34.76;102138.67;1406307;101;21117;-53
2022/07/19 11:22:42;;;;;;;2.92;1.20;;;;;;;31.58;34.60;102138.05;1370735;103;21596;-52
2022/07/19 11:25:10;;;;;;;1.45;1.02;;;;;;;31.62;34.27;102138.61;1376009;104;21662;-52
2022/07/19 11:27:42;;;;;;;2.85;1.30;;;;;;;31.63;34.45;102139.84;1378977;103;21632;-49
2022/07/19 11:30:11;;;;;;;1.45;1.05;;;;;;;31.65;34.28;102139.22;1363026;105;21642;-52
2022/07/19 11:32:41;;;;;;;3.92;1.40;;;;;;;31.69;33.96;102141.13;1366640;103;21179;-50
2022/07/19 11:35:12;;;;;;;2.67;1.55;;;;;;;31.73;33.32;102140.73;1398296;102;21679;-51
2022/07/19 11:37:41;;;;;;;3.95;1.50;;;;;;;31.75;33.40;102136.06;1396596;101;21128;-50
2022/07/19 11:40:09;;;;;;;3.87;1.50;;;;;;;31.78;34.01;102127.70;1400911;101;21193;-50